createdAt,value
2023-03-21T00:04:06.950Z,1004.51
2023-03-21T00:09:10.959Z,1004.53
2023-03-21T00:14:15.167Z,1004.51
2023-03-21T00:19:19.315Z,1004.56
2023-03-21T00:24:23.477Z,1004.53
2023-03-21T00:29:27.741Z,1004.52
2023-03-21T00:34:42.829Z,1004.52
2023-03-21T00:39:35.976Z,1004.48
2023-03-21T00:44:40.083Z,1004.59
2023-03-21T00:49:44.292Z,1004.60
2023-03-21T00:54:48.418Z,1004.59
2023-03-21T00:59:52.611Z,1004.55
2023-03-21T01:04:54.863Z,1004.58
2023-03-21T01:09:58.999Z,1004.57
2023-03-21T01:15:01.277Z,1004.50
2023-03-21T01:20:05.452Z,1004.57
2023-03-21T01:25:21.968Z,1004.51
2023-03-21T01:30:19.613Z,1004.47
2023-03-21T01:35:17.958Z,1004.38
2023-03-21T01:40:22.128Z,1004.36
2023-03-21T01:45:26.302Z,1004.27
2023-03-21T01:50:30.423Z,1004.12
2023-03-21T01:55:34.589Z,1004.08
2023-03-21T02:00:38.891Z,1004.07
2023-03-21T02:05:42.928Z,1003.96
2023-03-21T02:10:48.858Z,1003.87
2023-03-21T02:15:51.199Z,1003.65
2023-03-21T02:20:55.381Z,1003.47
2023-03-21T02:25:59.564Z,1003.40
2023-03-21T02:31:03.739Z,1003.27
2023-03-21T02:36:14.004Z,1003.11
2023-03-21T02:41:18.407Z,1003.02
2023-03-21T02:46:16.212Z,1002.99
2023-03-21T02:51:20.389Z,1002.91
2023-03-21T02:56:24.524Z,1002.76
2023-03-21T03:01:26.841Z,1002.66
2023-03-21T03:06:30.938Z,1002.26
2023-03-21T03:11:33.225Z,1001.94
2023-03-21T03:16:37.402Z,1001.64
2023-03-21T03:26:45.694Z,1000.94
2023-03-21T03:31:49.917Z,1000.71
2023-03-21T03:36:54.028Z,1000.32
2023-03-21T03:42:18.017Z,999.95
2023-03-21T03:47:02.339Z,999.56
2023-03-21T03:52:06.511Z,999.06
2023-03-21T03:57:10.679Z,998.63
2023-03-21T04:02:14.998Z,998.16
2023-03-21T04:07:19.011Z,997.82
2023-03-21T04:12:23.153Z,997.75
2023-03-21T04:17:27.325Z,997.57
2023-03-21T04:22:31.467Z,997.46
2023-03-21T04:27:35.678Z,997.32
2023-03-21T04:32:39.816Z,997.06
2023-03-21T04:37:43.962Z,996.70
2023-03-21T04:42:48.140Z,996.13
2023-03-21T04:47:52.302Z,996.08
2023-03-21T04:52:56.466Z,996.26
2023-03-21T04:58:00.673Z,996.45
2023-03-21T05:03:02.865Z,996.68
2023-03-21T05:13:11.215Z,997.35
2023-03-21T05:18:13.484Z,997.69
2023-03-21T05:23:17.655Z,997.79
2023-03-21T05:28:21.777Z,998.07
2023-03-21T05:33:25.970Z,998.26
2023-03-21T05:38:30.117Z,998.51
2023-03-21T05:43:34.266Z,998.68
2023-03-21T05:48:38.447Z,999.03
2023-03-21T05:53:42.596Z,999.26
2023-03-21T05:58:46.797Z,999.75
2023-03-21T06:03:51.003Z,999.79
2023-03-21T06:08:55.073Z,999.77
2023-03-21T06:13:59.257Z,999.75
2023-03-21T06:19:03.428Z,999.68
2023-03-21T06:24:07.576Z,999.36
2023-03-21T06:29:11.764Z,999.07
2023-03-21T06:34:15.877Z,998.88
2023-03-21T06:39:20.064Z,998.53
2023-03-21T06:44:24.273Z,998.24
2023-03-21T06:49:28.411Z,998.03
2023-03-21T06:54:32.557Z,997.57
2023-03-21T06:59:36.935Z,997.24
2023-03-21T07:04:38.952Z,996.83
2023-03-21T07:09:43.125Z,996.46
2023-03-21T07:14:45.398Z,996.29
2023-03-21T07:19:49.587Z,996.11
2023-03-21T07:25:04.379Z,995.87
2023-03-21T07:29:57.902Z,995.33
2023-03-21T07:35:02.057Z,995.03
2023-03-21T07:40:06.217Z,994.72
2023-03-21T07:45:10.400Z,994.89
2023-03-21T07:50:14.547Z,994.93
2023-03-21T07:55:18.710Z,995.17
2023-03-21T08:00:23.202Z,995.46
2023-03-21T08:05:27.016Z,995.65
2023-03-21T08:10:31.194Z,996.01
2023-03-21T08:15:35.483Z,996.11
2023-03-21T08:20:39.529Z,996.27
2023-03-21T08:25:43.690Z,996.49
2023-03-21T08:30:47.876Z,996.57
2023-03-21T08:35:52.006Z,996.69
2023-03-21T08:40:57.231Z,996.73
2023-03-21T08:46:00.374Z,996.73
2023-03-21T08:51:04.469Z,996.77
2023-03-21T08:56:08.638Z,996.75
2023-03-21T09:01:10.929Z,996.54
2023-03-21T09:06:15.043Z,996.24
2023-03-21T09:11:19.254Z,995.84
2023-03-21T09:16:23.420Z,995.53
2023-03-21T09:21:27.543Z,994.98
2023-03-21T09:26:31.723Z,994.30
2023-03-21T09:31:35.869Z,993.73
2023-03-21T09:36:40.018Z,993.45
2023-03-21T09:41:44.218Z,993.04
2023-03-21T09:46:48.391Z,992.86
2023-03-21T09:51:52.542Z,992.64
2023-03-21T09:56:56.726Z,992.18
2023-03-21T10:02:00.870Z,992.13
2023-03-21T10:07:05.002Z,992.11
2023-03-21T10:12:09.198Z,992.07
2023-03-21T10:17:13.341Z,992.10
2023-03-21T10:22:17.481Z,992.21
2023-03-21T10:27:21.665Z,992.50
2023-03-21T10:32:25.800Z,992.77
2023-03-21T10:37:29.969Z,993.44
2023-03-21T10:42:34.162Z,993.81
2023-03-21T10:47:36.712Z,994.25
2023-03-21T10:52:40.564Z,994.79
2023-03-21T10:57:42.868Z,995.20
2023-03-21T11:02:47.009Z,995.58
2023-03-21T11:07:51.125Z,995.82
2023-03-21T11:12:55.303Z,995.82
2023-03-21T11:17:59.484Z,995.68
2023-03-21T11:23:03.636Z,995.75
2023-03-21T11:28:07.783Z,996.05
2023-03-21T11:33:11.979Z,996.04
2023-03-21T11:38:16.115Z,996.43
2023-03-21T11:43:20.320Z,997.12
2023-03-21T11:48:24.612Z,997.73
2023-03-21T11:53:28.624Z,998.19
2023-03-21T11:58:32.795Z,998.43
2023-03-21T12:03:47.095Z,998.73
2023-03-21T12:08:41.096Z,998.76
2023-03-21T12:13:45.251Z,999.03
2023-03-21T12:18:49.412Z,999.05
2023-03-21T12:23:53.579Z,999.29
2023-03-21T12:28:57.721Z,999.62
2023-03-21T12:34:01.885Z,999.71
2023-03-21T12:39:06.024Z,999.86
2023-03-21T12:44:08.305Z,999.98
2023-03-21T12:49:12.453Z,1000.10
2023-03-21T12:54:14.738Z,1000.24
2023-03-21T12:59:18.899Z,999.89
2023-03-21T13:04:23.148Z,999.62
2023-03-21T13:09:36.769Z,999.33
2023-03-21T13:14:31.381Z,998.98
2023-03-21T13:19:33.664Z,998.70
2023-03-21T13:24:37.833Z,998.62
2023-03-21T13:29:41.987Z,998.79
2023-03-21T13:34:46.152Z,998.80
2023-03-21T13:39:50.314Z,998.82
2023-03-21T13:44:54.443Z,998.73
2023-03-21T13:49:58.639Z,998.80
2023-03-21T14:00:06.931Z,998.88
2023-03-21T14:05:11.190Z,999.06
2023-03-21T14:10:15.484Z,999.04
2023-03-21T14:15:19.614Z,999.12
2023-03-21T14:20:23.707Z,999.03
2023-03-21T14:25:31.456Z,999.16
2023-03-21T14:30:31.957Z,999.26
2023-03-21T14:35:36.237Z,999.30
2023-03-21T14:40:40.676Z,999.35
2023-03-21T14:45:42.508Z,999.39
2023-03-21T14:50:46.690Z,999.58
2023-03-21T14:55:48.918Z,999.67
2023-03-21T15:00:53.062Z,999.74
2023-03-21T15:05:57.275Z,999.77
2023-03-21T15:11:07.345Z,999.82
2023-03-21T15:16:05.611Z,999.72
2023-03-21T15:21:09.757Z,999.78
2023-03-21T15:26:13.882Z,999.77
2023-03-21T15:31:18.155Z,999.79
2023-03-21T15:36:22.320Z,999.62
2023-03-21T15:41:26.393Z,999.69
2023-03-21T15:46:30.585Z,999.89
2023-03-21T15:51:34.674Z,1000.17
2023-03-21T15:56:38.864Z,1000.10
2023-03-21T16:01:43.101Z,999.86
2023-03-21T16:06:47.196Z,999.95
2023-03-21T16:11:51.309Z,999.99
2023-03-21T16:16:55.500Z,1000.20
2023-03-21T16:21:59.649Z,1000.83
2023-03-21T16:27:03.844Z,1001.02
2023-03-21T16:32:08.033Z,1001.27
2023-03-21T16:37:12.161Z,1001.18
2023-03-21T16:42:14.397Z,1001.05
2023-03-21T16:47:18.557Z,1000.87
2023-03-21T16:52:20.878Z,1000.79
2023-03-21T16:57:24.994Z,1000.57
2023-03-21T17:02:29.184Z,1000.21
2023-03-21T17:07:33.352Z,1000.03
2023-03-21T17:12:37.483Z,1000.04
2023-03-21T17:17:41.637Z,999.96
2023-03-21T17:22:45.792Z,999.88
2023-03-21T17:27:49.984Z,999.78
2023-03-21T17:32:54.113Z,999.70
2023-03-21T17:37:58.487Z,999.60
2023-03-21T17:43:02.451Z,999.62
2023-03-21T17:48:06.568Z,999.63
2023-03-21T17:53:10.778Z,999.50
2023-03-21T17:58:14.915Z,999.45
2023-03-21T18:03:19.753Z,999.39
2023-03-21T18:13:27.376Z,999.37
2023-03-21T18:18:31.569Z,999.30
2023-03-21T18:23:35.716Z,999.26
2023-03-21T18:28:41.162Z,999.35
2023-03-21T18:33:44.052Z,999.33
2023-03-21T18:38:48.209Z,999.29
2023-03-21T18:44:13.567Z,999.10
2023-03-21T18:48:55.254Z,998.84
2023-03-21T18:53:58.783Z,998.42
2023-03-21T18:59:01.121Z,998.28
2023-03-21T19:04:21.016Z,998.12
2023-03-21T19:09:09.919Z,998.10
2023-03-21T19:14:13.543Z,997.97
2023-03-21T19:19:17.823Z,998.03
2023-03-21T19:24:27.774Z,997.77
2023-03-21T19:29:26.227Z,997.64
2023-03-21T19:34:30.176Z,997.72
2023-03-21T19:39:34.335Z,997.74
2023-03-21T19:44:38.627Z,997.85
2023-03-21T19:50:30.646Z,997.80
2023-03-21T19:54:46.864Z,997.91
2023-03-21T19:59:50.988Z,997.97
2023-03-21T20:04:55.161Z,998.15
2023-03-21T20:09:59.334Z,998.11
2023-03-21T20:15:12.034Z,998.15
2023-03-21T20:20:07.655Z,998.48
2023-03-21T20:25:11.787Z,998.56
2023-03-21T20:30:15.968Z,998.63
2023-03-21T20:35:31.524Z,998.61
2023-03-21T20:40:24.286Z,998.55
2023-03-21T20:45:26.536Z,998.57
2023-03-21T20:50:30.902Z,998.64
2023-03-21T20:55:34.899Z,998.86
2023-03-21T21:00:39.281Z,998.95
2023-03-21T21:05:41.315Z,998.99
2023-03-21T21:11:19.065Z,998.83
2023-03-21T21:15:49.707Z,998.90
2023-03-21T21:20:53.860Z,998.78
2023-03-21T21:25:57.947Z,998.87
2023-03-21T21:31:02.203Z,998.86
2023-03-21T21:36:06.346Z,998.77
2023-03-21T21:41:10.433Z,998.62
2023-03-21T21:46:14.674Z,998.58
2023-03-21T21:51:18.792Z,998.56
2023-03-21T22:01:27.178Z,998.58
2023-03-21T22:06:31.239Z,998.65
2023-03-21T22:11:35.426Z,998.64
2023-03-21T22:16:39.746Z,998.71
2023-03-21T22:21:43.721Z,998.65
2023-03-21T22:26:47.960Z,998.71
2023-03-21T22:31:52.141Z,998.64
2023-03-21T22:36:56.214Z,998.64
2023-03-21T22:42:00.400Z,998.77
2023-03-21T22:47:04.529Z,998.80
2023-03-21T22:52:08.716Z,998.68
2023-03-21T22:57:10.996Z,998.70
2023-03-21T23:02:15.173Z,998.63
2023-03-21T23:07:17.434Z,998.57
2023-03-21T23:12:21.565Z,998.54
2023-03-21T23:17:25.700Z,998.64
2023-03-21T23:22:29.890Z,998.65
2023-03-21T23:27:34.026Z,998.60
2023-03-21T23:32:38.228Z,998.57
2023-03-21T23:37:42.465Z,998.68
2023-03-21T23:42:46.512Z,998.53
2023-03-21T23:47:50.741Z,998.55
2023-03-21T23:52:54.836Z,998.47
2023-03-21T23:57:59.061Z,998.47
